Pearson, Arkansas
Current Conditions -  °F | °C
As of 12:35 AM on Monday 24 Nov 2014 (Local Time) from KCCA Reporting Station
Overcast Overcast  
Wind Chill: 55°   Ceiling: 2400
Heat Index: 55°   Visibility: 10mi
Dew Point: 48°   Wind: 20mph
Humidity: 77%   Direction: 280°W
Pressure: 29.47"   Gusts: 24mph
Location:  35.4081°N, 92.1263°W
Report Text: KCCA 240635Z AUTO 28017G21KT 10SM BKN024 OVC031 13/09 A2947 RMK AO2
Loading
Personal Weather Stations






























Interactive Weather Map New forecast layout! Learn more

10-Day Weather Forecast

Advertisements
Track Severe Weather on mobile